sensor_id;sensor_type;location;lat;lon;timestamp;temperature;humidity
56542;DHT22;42438;53.174;6.730;2023-06-14T00:02:13;16.20;1.00
56542;DHT22;42438;53.174;6.730;2023-06-14T00:04:44;16.10;1.00
56542;DHT22;42438;53.174;6.730;2023-06-14T00:07:20;16.00;1.00
56542;DHT22;42438;53.174;6.730;2023-06-14T00:09:54;16.00;1.00
56542;DHT22;42438;53.174;6.730;2023-06-14T00:12:24;16.00;1.00
56542;DHT22;42438;53.174;6.730;2023-06-14T00:14:55;16.00;1.00
56542;DHT22;42438;53.174;6.730;2023-06-14T00:17:26;15.90;1.00
56542;DHT22;42438;53.174;6.730;2023-06-14T00:20:01;15.90;1.00
56542;DHT22;42438;53.174;6.730;2023-06-14T00:22:34;15.90;1.00
56542;DHT22;42438;53.174;6.730;2023-06-14T00:25:07;15.90;1.00
56542;DHT22;42438;53.174;6.730;2023-06-14T00:27:38;15.80;1.00
56542;DHT22;42438;53.174;6.730;2023-06-14T00:30:09;15.80;1.00
56542;DHT22;42438;53.174;6.730;2023-06-14T00:32:40;15.80;1.00
56542;DHT22;42438;53.174;6.730;2023-06-14T00:35:13;15.80;1.00
56542;DHT22;42438;53.174;6.730;2023-06-14T00:37:44;15.70;1.00
56542;DHT22;42438;53.174;6.730;2023-06-14T00:40:14;15.60;1.00
56542;DHT22;42438;53.174;6.730;2023-06-14T00:42:45;15.60;1.00
56542;DHT22;42438;53.174;6.730;2023-06-14T00:45:16;15.60;1.00
56542;DHT22;42438;53.174;6.730;2023-06-14T00:47:47;15.50;1.00
56542;DHT22;42438;53.174;6.730;2023-06-14T00:50:20;15.50;1.00
56542;DHT22;42438;53.174;6.730;2023-06-14T00:52:51;15.40;1.00
56542;DHT22;42438;53.174;6.730;2023-06-14T00:55:22;15.40;1.00
56542;DHT22;42438;53.174;6.730;2023-06-14T00:57:55;15.30;1.00
56542;DHT22;42438;53.174;6.730;2023-06-14T01:00:26;15.30;1.00
56542;DHT22;42438;53.174;6.730;2023-06-14T01:02:58;15.30;1.00
56542;DHT22;42438;53.174;6.730;2023-06-14T01:05:30;15.20;1.00
56542;DHT22;42438;53.174;6.730;2023-06-14T01:11:02;15.20;1.00
56542;DHT22;42438;53.174;6.730;2023-06-14T01:13:38;15.20;1.00
56542;DHT22;42438;53.174;6.730;2023-06-14T01:16:10;15.10;1.00
56542;DHT22;42438;53.174;6.730;2023-06-14T01:18:41;15.10;1.00
56542;DHT22;42438;53.174;6.730;2023-06-14T01:21:25;15.10;1.00
56542;DHT22;42438;53.174;6.730;2023-06-14T01:23:55;15.10;1.00
56542;DHT22;42438;53.174;6.730;2023-06-14T01:26:26;15.00;1.00
56542;DHT22;42438;53.174;6.730;2023-06-14T01:28:59;15.00;1.00
56542;DHT22;42438;53.174;6.730;2023-06-14T01:31:30;14.90;1.00
56542;DHT22;42438;53.174;6.730;2023-06-14T01:34:11;14.90;1.00
56542;DHT22;42438;53.174;6.730;2023-06-14T01:36:44;14.80;1.00
56542;DHT22;42438;53.174;6.730;2023-06-14T01:39:15;14.80;1.00
56542;DHT22;42438;53.174;6.730;2023-06-14T01:41:47;14.80;1.00
56542;DHT22;42438;53.174;6.730;2023-06-14T01:44:20;14.80;1.00
56542;DHT22;42438;53.174;6.730;2023-06-14T01:46:51;14.80;1.00
56542;DHT22;42438;53.174;6.730;2023-06-14T01:49:22;14.80;1.00
56542;DHT22;42438;53.174;6.730;2023-06-14T01:51:52;14.80;1.00
56542;DHT22;42438;53.174;6.730;2023-06-14T01:54:23;14.70;1.00
56542;DHT22;42438;53.174;6.730;2023-06-14T01:56:56;14.60;1.00
56542;DHT22;42438;53.174;6.730;2023-06-14T01:59:27;14.60;1.00
56542;DHT22;42438;53.174;6.730;2023-06-14T02:01:58;14.60;1.00
56542;DHT22;42438;53.174;6.730;2023-06-14T02:04:28;14.50;1.00
56542;DHT22;42438;53.174;6.730;2023-06-14T02:06:59;14.50;1.00
56542;DHT22;42438;53.174;6.730;2023-06-14T02:09:29;14.50;1.00
56542;DHT22;42438;53.174;6.730;2023-06-14T02:12:01;14.50;1.00
56542;DHT22;42438;53.174;6.730;2023-06-14T02:14:31;14.50;1.00
56542;DHT22;42438;53.174;6.730;2023-06-14T02:17:03;14.40;1.00
56542;DHT22;42438;53.174;6.730;2023-06-14T02:19:33;14.40;1.00
56542;DHT22;42438;53.174;6.730;2023-06-14T02:22:04;14.30;1.00
56542;DHT22;42438;53.174;6.730;2023-06-14T02:24:35;14.30;1.00
56542;DHT22;42438;53.174;6.730;2023-06-14T02:27:06;14.20;1.00
56542;DHT22;42438;53.174;6.730;2023-06-14T02:29:37;14.30;1.00
56542;DHT22;42438;53.174;6.730;2023-06-14T02:32:07;14.20;1.00
56542;DHT22;42438;53.174;6.730;2023-06-14T02:34:38;14.20;1.00
56542;DHT22;42438;53.174;6.730;2023-06-14T02:37:11;14.10;1.00
56542;DHT22;42438;53.174;6.730;2023-06-14T02:39:43;14.10;1.00
56542;DHT22;42438;53.174;6.730;2023-06-14T02:42:14;14.10;1.00
56542;DHT22;42438;53.174;6.730;2023-06-14T02:44:45;14.00;1.00
56542;DHT22;42438;53.174;6.730;2023-06-14T02:47:18;14.00;1.00
56542;DHT22;42438;53.174;6.730;2023-06-14T02:49:48;14.00;1.00
56542;DHT22;42438;53.174;6.730;2023-06-14T02:52:19;14.00;1.00
56542;DHT22;42438;53.174;6.730;2023-06-14T02:54:51;13.90;1.00
56542;DHT22;42438;53.174;6.730;2023-06-14T02:57:22;13.90;1.00
56542;DHT22;42438;53.174;6.730;2023-06-14T02:59:53;13.90;1.00
56542;DHT22;42438;53.174;6.730;2023-06-14T03:02:24;13.80;1.00
56542;DHT22;42438;53.174;6.730;2023-06-14T03:04:54;13.80;1.00
56542;DHT22;42438;53.174;6.730;2023-06-14T03:07:26;13.80;1.00
56542;DHT22;42438;53.174;6.730;2023-06-14T03:09:58;13.80;1.00
56542;DHT22;42438;53.174;6.730;2023-06-14T03:12:29;13.80;1.00
56542;DHT22;42438;53.174;6.730;2023-06-14T03:14:59;13.70;1.00
56542;DHT22;42438;53.174;6.730;2023-06-14T03:17:34;13.70;1.00
56542;DHT22;42438;53.174;6.730;2023-06-14T03:20:09;13.70;1.00
56542;DHT22;42438;53.174;6.730;2023-06-14T03:22:39;13.70;1.00
56542;DHT22;42438;53.174;6.730;2023-06-14T03:25:11;13.70;1.00
56542;DHT22;42438;53.174;6.730;2023-06-14T03:27:41;13.60;1.00
56542;DHT22;42438;53.174;6.730;2023-06-14T03:30:12;13.60;1.00
56542;DHT22;42438;53.174;6.730;2023-06-14T03:32:43;13.60;1.00
56542;DHT22;42438;53.174;6.730;2023-06-14T03:35:14;13.60;1.00
56542;DHT22;42438;53.174;6.730;2023-06-14T03:37:47;13.70;1.00
56542;DHT22;42438;53.174;6.730;2023-06-14T03:40:19;13.60;20.40
56542;DHT22;42438;53.174;6.730;2023-06-14T03:42:50;13.60;35.20
56542;DHT22;42438;53.174;6.730;2023-06-14T03:45:21;13.60;32.00
56542;DHT22;42438;53.174;6.730;2023-06-14T03:47:52;13.60;72.10
56542;DHT22;42438;53.174;6.730;2023-06-14T03:50:23;13.60;87.40
56542;DHT22;42438;53.174;6.730;2023-06-14T03:52:53;13.70;91.10
56542;DHT22;42438;53.174;6.730;2023-06-14T03:55:24;13.60;99.90
56542;DHT22;42438;53.174;6.730;2023-06-14T03:57:58;13.70;99.90
56542;DHT22;42438;53.174;6.730;2023-06-14T04:00:29;13.70;99.90
56542;DHT22;42438;53.174;6.730;2023-06-14T04:02:59;14.20;99.90
56542;DHT22;42438;53.174;6.730;2023-06-14T04:05:30;13.80;99.90
56542;DHT22;42438;53.174;6.730;2023-06-14T04:08:01;13.70;99.90
56542;DHT22;42438;53.174;6.730;2023-06-14T04:10:32;13.80;99.90
56542;DHT22;42438;53.174;6.730;2023-06-14T04:13:02;13.80;99.90
56542;DHT22;42438;53.174;6.730;2023-06-14T04:15:33;13.80;99.90
56542;DHT22;42438;53.174;6.730;2023-06-14T04:18:04;13.80;99.90
56542;DHT22;42438;53.174;6.730;2023-06-14T04:20:35;13.90;99.90
56542;DHT22;42438;53.174;6.730;2023-06-14T04:23:17;14.00;99.90
56542;DHT22;42438;53.174;6.730;2023-06-14T04:25:52;14.00;99.90
56542;DHT22;42438;53.174;6.730;2023-06-14T04:28:23;14.10;99.90
56542;DHT22;42438;53.174;6.730;2023-06-14T04:30:56;14.10;99.90
56542;DHT22;42438;53.174;6.730;2023-06-14T04:33:26;14.20;99.90
56542;DHT22;42438;53.174;6.730;2023-06-14T04:35:57;14.20;99.90
56542;DHT22;42438;53.174;6.730;2023-06-14T04:38:28;14.20;99.90
56542;DHT22;42438;53.174;6.730;2023-06-14T04:40:58;14.30;99.90
56542;DHT22;42438;53.174;6.730;2023-06-14T04:43:32;14.40;99.90
56542;DHT22;42438;53.174;6.730;2023-06-14T04:46:08;14.50;99.90
56542;DHT22;42438;53.174;6.730;2023-06-14T04:48:40;14.60;99.90
56542;DHT22;42438;53.174;6.730;2023-06-14T04:51:12;14.70;99.90
56542;DHT22;42438;53.174;6.730;2023-06-14T04:53:43;14.80;99.90
56542;DHT22;42438;53.174;6.730;2023-06-14T04:56:15;14.80;99.90
56542;DHT22;42438;53.174;6.730;2023-06-14T04:58:47;14.90;99.90
56542;DHT22;42438;53.174;6.730;2023-06-14T05:01:17;14.90;99.90
56542;DHT22;42438;53.174;6.730;2023-06-14T05:03:48;15.00;99.90
56542;DHT22;42438;53.174;6.730;2023-06-14T05:06:19;15.00;99.90
56542;DHT22;42438;53.174;6.730;2023-06-14T05:08:50;15.10;99.90
56542;DHT22;42438;53.174;6.730;2023-06-14T05:11:21;15.20;99.90
56542;DHT22;42438;53.174;6.730;2023-06-14T05:13:54;15.30;97.80
56542;DHT22;42438;53.174;6.730;2023-06-14T05:16:25;15.30;93.30
56542;DHT22;42438;53.174;6.730;2023-06-14T05:18:57;15.40;91.90
56542;DHT22;42438;53.174;6.730;2023-06-14T05:21:29;15.40;72.50
56542;DHT22;42438;53.174;6.730;2023-06-14T05:24:00;15.60;58.60
56542;DHT22;42438;53.174;6.730;2023-06-14T05:26:31;15.70;38.90
56542;DHT22;42438;53.174;6.730;2023-06-14T05:29:02;15.80;29.90
56542;DHT22;42438;53.174;6.730;2023-06-14T05:31:33;15.90;21.50
56542;DHT22;42438;53.174;6.730;2023-06-14T05:34:04;16.00;12.50
56542;DHT22;42438;53.174;6.730;2023-06-14T05:36:35;16.10;2.80
56542;DHT22;42438;53.174;6.730;2023-06-14T05:39:07;16.20;7.00
56542;DHT22;42438;53.174;6.730;2023-06-14T05:41:38;16.40;37.10
56542;DHT22;42438;53.174;6.730;2023-06-14T05:44:09;17.60;1.00
56542;DHT22;42438;53.174;6.730;2023-06-14T05:46:40;19.20;1.00
56542;DHT22;42438;53.174;6.730;2023-06-14T05:49:11;20.60;1.00
56542;DHT22;42438;53.174;6.730;2023-06-14T05:51:42;21.80;1.00
56542;DHT22;42438;53.174;6.730;2023-06-14T05:54:13;22.70;1.00
56542;DHT22;42438;53.174;6.730;2023-06-14T05:56:43;23.40;1.00
56542;DHT22;42438;53.174;6.730;2023-06-14T05:59:14;24.10;1.00
56542;DHT22;42438;53.174;6.730;2023-06-14T06:01:45;24.70;1.00
56542;DHT22;42438;53.174;6.730;2023-06-14T06:04:15;25.20;1.00
56542;DHT22;42438;53.174;6.730;2023-06-14T06:06:46;25.60;1.00
56542;DHT22;42438;53.174;6.730;2023-06-14T06:09:18;25.70;1.00
56542;DHT22;42438;53.174;6.730;2023-06-14T06:11:49;25.90;1.00
56542;DHT22;42438;53.174;6.730;2023-06-14T06:14:20;26.20;1.00
56542;DHT22;42438;53.174;6.730;2023-06-14T06:16:50;26.40;1.00
56542;DHT22;42438;53.174;6.730;2023-06-14T06:19:23;26.60;1.00
56542;DHT22;42438;53.174;6.730;2023-06-14T06:21:53;26.60;1.00
56542;DHT22;42438;53.174;6.730;2023-06-14T06:24:24;26.60;1.00
56542;DHT22;42438;53.174;6.730;2023-06-14T06:26:54;26.40;1.00
56542;DHT22;42438;53.174;6.730;2023-06-14T06:29:26;25.90;1.00
56542;DHT22;42438;53.174;6.730;2023-06-14T06:31:56;25.20;1.00
56542;DHT22;42438;53.174;6.730;2023-06-14T06:34:27;24.50;1.00
56542;DHT22;42438;53.174;6.730;2023-06-14T06:36:58;24.00;1.00
56542;DHT22;42438;53.174;6.730;2023-06-14T06:39:28;23.30;1.00
56542;DHT22;42438;53.174;6.730;2023-06-14T06:41:59;22.80;1.00
56542;DHT22;42438;53.174;6.730;2023-06-14T06:44:30;22.30;1.00
56542;DHT22;42438;53.174;6.730;2023-06-14T06:47:00;22.10;1.00
56542;DHT22;42438;53.174;6.730;2023-06-14T06:49:31;21.90;1.00
56542;DHT22;42438;53.174;6.730;2023-06-14T06:52:06;21.90;1.00
56542;DHT22;42438;53.174;6.730;2023-06-14T06:54:36;21.80;1.00
56542;DHT22;42438;53.174;6.730;2023-06-14T06:57:07;21.90;1.00
56542;DHT22;42438;53.174;6.730;2023-06-14T06:59:38;22.00;1.00
56542;DHT22;42438;53.174;6.730;2023-06-14T07:02:08;22.10;1.00
56542;DHT22;42438;53.174;6.730;2023-06-14T07:04:39;21.80;1.00
56542;DHT22;42438;53.174;6.730;2023-06-14T07:07:10;21.80;1.00
56542;DHT22;42438;53.174;6.730;2023-06-14T07:09:41;21.70;1.00
56542;DHT22;42438;53.174;6.730;2023-06-14T07:12:12;21.70;1.00
56542;DHT22;42438;53.174;6.730;2023-06-14T07:14:43;21.70;1.00
56542;DHT22;42438;53.174;6.730;2023-06-14T07:17:14;21.50;1.00
56542;DHT22;42438;53.174;6.730;2023-06-14T07:19:44;21.60;1.00
56542;DHT22;42438;53.174;6.730;2023-06-14T07:22:15;21.60;1.00
56542;DHT22;42438;53.174;6.730;2023-06-14T07:24:46;21.50;1.00
56542;DHT22;42438;53.174;6.730;2023-06-14T07:27:17;21.60;1.00
56542;DHT22;42438;53.174;6.730;2023-06-14T07:29:47;21.80;1.00
56542;DHT22;42438;53.174;6.730;2023-06-14T07:32:18;21.90;1.00
56542;DHT22;42438;53.174;6.730;2023-06-14T07:34:50;21.90;1.00
56542;DHT22;42438;53.174;6.730;2023-06-14T07:37:21;21.90;1.00
56542;DHT22;42438;53.174;6.730;2023-06-14T07:39:51;21.70;1.00
56542;DHT22;42438;53.174;6.730;2023-06-14T07:42:22;21.80;1.00
56542;DHT22;42438;53.174;6.730;2023-06-14T07:44:52;21.90;1.00
56542;DHT22;42438;53.174;6.730;2023-06-14T07:47:24;21.90;1.00
56542;DHT22;42438;53.174;6.730;2023-06-14T07:49:55;22.00;1.00
56542;DHT22;42438;53.174;6.730;2023-06-14T07:52:26;22.00;1.00
56542;DHT22;42438;53.174;6.730;2023-06-14T07:54:56;22.10;1.00
56542;DHT22;42438;53.174;6.730;2023-06-14T07:57:27;22.10;1.00
56542;DHT22;42438;53.174;6.730;2023-06-14T07:59:58;22.20;1.00
56542;DHT22;42438;53.174;6.730;2023-06-14T08:02:29;22.30;1.00
56542;DHT22;42438;53.174;6.730;2023-06-14T08:05:00;22.30;1.00
56542;DHT22;42438;53.174;6.730;2023-06-14T08:07:30;22.40;1.00
56542;DHT22;42438;53.174;6.730;2023-06-14T08:10:01;22.40;1.00
56542;DHT22;42438;53.174;6.730;2023-06-14T08:12:32;22.60;1.00
56542;DHT22;42438;53.174;6.730;2023-06-14T08:15:03;22.70;1.00
56542;DHT22;42438;53.174;6.730;2023-06-14T08:17:34;22.80;1.00
56542;DHT22;42438;53.174;6.730;2023-06-14T08:20:05;22.90;1.00
56542;DHT22;42438;53.174;6.730;2023-06-14T08:22:36;23.00;1.00
56542;DHT22;42438;53.174;6.730;2023-06-14T08:25:08;23.10;1.00
56542;DHT22;42438;53.174;6.730;2023-06-14T08:27:39;23.00;1.00
56542;DHT22;42438;53.174;6.730;2023-06-14T08:30:10;23.10;1.00
56542;DHT22;42438;53.174;6.730;2023-06-14T08:32:41;23.20;1.00
56542;DHT22;42438;53.174;6.730;2023-06-14T08:35:12;23.30;1.00
56542;DHT22;42438;53.174;6.730;2023-06-14T08:37:42;23.30;1.00
56542;DHT22;42438;53.174;6.730;2023-06-14T08:40:23;23.30;1.00
56542;DHT22;42438;53.174;6.730;2023-06-14T08:42:54;23.40;1.00
56542;DHT22;42438;53.174;6.730;2023-06-14T08:45:25;23.40;1.00
56542;DHT22;42438;53.174;6.730;2023-06-14T08:47:56;23.40;1.00
56542;DHT22;42438;53.174;6.730;2023-06-14T08:50:30;23.50;1.00
56542;DHT22;42438;53.174;6.730;2023-06-14T08:53:03;23.50;1.00
56542;DHT22;42438;53.174;6.730;2023-06-14T08:55:33;23.60;1.00
56542;DHT22;42438;53.174;6.730;2023-06-14T08:58:05;23.60;1.00
56542;DHT22;42438;53.174;6.730;2023-06-14T09:00:36;23.60;1.00
56542;DHT22;42438;53.174;6.730;2023-06-14T09:03:08;23.70;1.00
56542;DHT22;42438;53.174;6.730;2023-06-14T09:05:43;23.80;1.00
56542;DHT22;42438;53.174;6.730;2023-06-14T09:08:15;23.80;1.00
56542;DHT22;42438;53.174;6.730;2023-06-14T09:10:46;24.00;1.00
56542;DHT22;42438;53.174;6.730;2023-06-14T09:13:17;24.20;1.00
56542;DHT22;42438;53.174;6.730;2023-06-14T09:15:48;24.30;1.00
56542;DHT22;42438;53.174;6.730;2023-06-14T09:18:19;24.40;1.00
56542;DHT22;42438;53.174;6.730;2023-06-14T09:20:53;24.40;1.00
56542;DHT22;42438;53.174;6.730;2023-06-14T09:23:24;24.30;1.00
56542;DHT22;42438;53.174;6.730;2023-06-14T09:25:54;24.40;1.00
56542;DHT22;42438;53.174;6.730;2023-06-14T09:28:28;24.50;1.00
56542;DHT22;42438;53.174;6.730;2023-06-14T09:31:00;24.50;1.00
56542;DHT22;42438;53.174;6.730;2023-06-14T09:33:31;24.50;1.00
56542;DHT22;42438;53.174;6.730;2023-06-14T09:36:02;24.50;1.00
56542;DHT22;42438;53.174;6.730;2023-06-14T09:38:34;24.50;1.00
56542;DHT22;42438;53.174;6.730;2023-06-14T09:41:05;24.50;1.00
56542;DHT22;42438;53.174;6.730;2023-06-14T09:43:36;24.60;1.00
56542;DHT22;42438;53.174;6.730;2023-06-14T09:46:08;24.60;1.00
56542;DHT22;42438;53.174;6.730;2023-06-14T09:48:39;24.80;1.00
56542;DHT22;42438;53.174;6.730;2023-06-14T09:51:14;24.90;1.00
56542;DHT22;42438;53.174;6.730;2023-06-14T09:53:47;24.80;1.00
56542;DHT22;42438;53.174;6.730;2023-06-14T09:56:26;24.90;1.00
56542;DHT22;42438;53.174;6.730;2023-06-14T09:58:59;24.80;1.00
56542;DHT22;42438;53.174;6.730;2023-06-14T10:01:31;24.80;1.00
56542;DHT22;42438;53.174;6.730;2023-06-14T10:04:05;24.70;1.00
56542;DHT22;42438;53.174;6.730;2023-06-14T10:06:41;24.80;1.00
56542;DHT22;42438;53.174;6.730;2023-06-14T10:09:13;24.80;1.00
56542;DHT22;42438;53.174;6.730;2023-06-14T10:11:45;24.80;1.00
56542;DHT22;42438;53.174;6.730;2023-06-14T10:14:16;24.80;1.00
56542;DHT22;42438;53.174;6.730;2023-06-14T10:17:04;24.90;1.00
56542;DHT22;42438;53.174;6.730;2023-06-14T10:19:50;25.00;1.00
56542;DHT22;42438;53.174;6.730;2023-06-14T10:22:32;25.30;1.00
56542;DHT22;42438;53.174;6.730;2023-06-14T10:25:07;25.30;1.00
56542;DHT22;42438;53.174;6.730;2023-06-14T10:27:44;25.30;1.00
56542;DHT22;42438;53.174;6.730;2023-06-14T10:30:16;25.30;1.00
56542;DHT22;42438;53.174;6.730;2023-06-14T10:33:06;25.50;1.00
56542;DHT22;42438;53.174;6.730;2023-06-14T10:35:37;25.70;1.00
56542;DHT22;42438;53.174;6.730;2023-06-14T10:38:14;25.70;1.00
56542;DHT22;42438;53.174;6.730;2023-06-14T10:40:52;25.70;1.00
56542;DHT22;42438;53.174;6.730;2023-06-14T10:43:25;25.60;1.00
56542;DHT22;42438;53.174;6.730;2023-06-14T10:46:13;25.60;1.00
56542;DHT22;42438;53.174;6.730;2023-06-14T10:48:44;25.80;1.00
56542;DHT22;42438;53.174;6.730;2023-06-14T10:51:19;25.90;1.00
56542;DHT22;42438;53.174;6.730;2023-06-14T10:53:56;26.10;1.00
56542;DHT22;42438;53.174;6.730;2023-06-14T10:56:30;26.10;1.00
56542;DHT22;42438;53.174;6.730;2023-06-14T10:59:01;26.20;1.00
56542;DHT22;42438;53.174;6.730;2023-06-14T11:01:37;26.40;1.00
56542;DHT22;42438;53.174;6.730;2023-06-14T11:04:10;26.60;1.00
56542;DHT22;42438;53.174;6.730;2023-06-14T11:06:45;26.50;1.00
56542;DHT22;42438;53.174;6.730;2023-06-14T11:09:45;26.50;1.00
56542;DHT22;42438;53.174;6.730;2023-06-14T11:12:21;26.60;1.00
56542;DHT22;42438;53.174;6.730;2023-06-14T11:14:51;26.40;1.00
56542;DHT22;42438;53.174;6.730;2023-06-14T11:17:22;26.30;1.00
56542;DHT22;42438;53.174;6.730;2023-06-14T11:20:11;26.30;1.00
56542;DHT22;42438;53.174;6.730;2023-06-14T11:22:46;26.40;1.00
56542;DHT22;42438;53.174;6.730;2023-06-14T11:25:17;26.60;1.00
56542;DHT22;42438;53.174;6.730;2023-06-14T11:27:50;26.80;1.00
56542;DHT22;42438;53.174;6.730;2023-06-14T11:30:21;27.20;1.00
56542;DHT22;42438;53.174;6.730;2023-06-14T11:32:53;27.40;1.00
56542;DHT22;42438;53.174;6.730;2023-06-14T11:35:25;27.50;1.00
56542;DHT22;42438;53.174;6.730;2023-06-14T11:37:57;27.50;1.00
56542;DHT22;42438;53.174;6.730;2023-06-14T11:40:28;27.60;1.00
56542;DHT22;42438;53.174;6.730;2023-06-14T11:43:00;27.70;1.00
56542;DHT22;42438;53.174;6.730;2023-06-14T11:45:31;27.40;1.00
56542;DHT22;42438;53.174;6.730;2023-06-14T11:48:03;27.30;1.00
56542;DHT22;42438;53.174;6.730;2023-06-14T11:50:37;27.30;1.00
56542;DHT22;42438;53.174;6.730;2023-06-14T11:53:09;27.30;1.00
56542;DHT22;42438;53.174;6.730;2023-06-14T11:55:40;27.40;1.00
56542;DHT22;42438;53.174;6.730;2023-06-14T11:58:14;27.40;1.00
56542;DHT22;42438;53.174;6.730;2023-06-14T12:00:49;27.70;1.00
56542;DHT22;42438;53.174;6.730;2023-06-14T12:03:23;27.80;1.00
56542;DHT22;42438;53.174;6.730;2023-06-14T12:06:05;27.70;1.00
56542;DHT22;42438;53.174;6.730;2023-06-14T12:08:39;27.70;1.00
56542;DHT22;42438;53.174;6.730;2023-06-14T12:11:14;27.80;1.00
56542;DHT22;42438;53.174;6.730;2023-06-14T12:13:45;27.50;1.00
56542;DHT22;42438;53.174;6.730;2023-06-14T12:16:16;27.20;1.00
56542;DHT22;42438;53.174;6.730;2023-06-14T12:18:46;27.00;1.00
56542;DHT22;42438;53.174;6.730;2023-06-14T12:21:17;27.10;1.00
56542;DHT22;42438;53.174;6.730;2023-06-14T12:23:53;27.10;99.90
56542;DHT22;42438;53.174;6.730;2023-06-14T12:26:24;26.90;99.90
56542;DHT22;42438;53.174;6.730;2023-06-14T12:28:57;26.90;99.90
56542;DHT22;42438;53.174;6.730;2023-06-14T12:31:27;27.00;99.90
56542;DHT22;42438;53.174;6.730;2023-06-14T12:33:59;27.10;99.90
56542;DHT22;42438;53.174;6.730;2023-06-14T12:36:30;27.40;1.00
56542;DHT22;42438;53.174;6.730;2023-06-14T12:39:02;27.40;99.90
56542;DHT22;42438;53.174;6.730;2023-06-14T12:41:33;27.20;1.00
56542;DHT22;42438;53.174;6.730;2023-06-14T12:44:04;27.30;99.90
56542;DHT22;42438;53.174;6.730;2023-06-14T12:46:35;27.50;99.90
56542;DHT22;42438;53.174;6.730;2023-06-14T12:49:11;27.40;99.90
56542;DHT22;42438;53.174;6.730;2023-06-14T12:51:42;27.60;1.00
56542;DHT22;42438;53.174;6.730;2023-06-14T12:54:12;27.90;99.90
56542;DHT22;42438;53.174;6.730;2023-06-14T12:56:45;27.80;99.90
56542;DHT22;42438;53.174;6.730;2023-06-14T12:59:15;27.70;99.90
56542;DHT22;42438;53.174;6.730;2023-06-14T13:01:46;27.30;99.90
56542;DHT22;42438;53.174;6.730;2023-06-14T13:04:20;27.00;99.90
56542;DHT22;42438;53.174;6.730;2023-06-14T13:06:50;27.10;99.90
56542;DHT22;42438;53.174;6.730;2023-06-14T13:09:21;27.30;99.90
56542;DHT22;42438;53.174;6.730;2023-06-14T13:11:51;27.60;99.90
56542;DHT22;42438;53.174;6.730;2023-06-14T13:14:22;27.80;99.90
56542;DHT22;42438;53.174;6.730;2023-06-14T13:16:53;28.00;99.90
56542;DHT22;42438;53.174;6.730;2023-06-14T13:19:23;28.10;99.90
56542;DHT22;42438;53.174;6.730;2023-06-14T13:21:54;28.10;99.90
56542;DHT22;42438;53.174;6.730;2023-06-14T13:24:25;28.10;99.90
56542;DHT22;42438;53.174;6.730;2023-06-14T13:26:56;28.00;99.90
56542;DHT22;42438;53.174;6.730;2023-06-14T13:29:27;28.20;99.90
56542;DHT22;42438;53.174;6.730;2023-06-14T13:31:58;28.10;99.90
56542;DHT22;42438;53.174;6.730;2023-06-14T13:34:28;27.90;99.90
56542;DHT22;42438;53.174;6.730;2023-06-14T13:36:59;27.80;99.90
56542;DHT22;42438;53.174;6.730;2023-06-14T13:39:30;27.80;99.90
56542;DHT22;42438;53.174;6.730;2023-06-14T13:42:00;27.70;99.90
56542;DHT22;42438;53.174;6.730;2023-06-14T13:44:31;27.60;99.90
56542;DHT22;42438;53.174;6.730;2023-06-14T13:47:01;27.60;99.90
56542;DHT22;42438;53.174;6.730;2023-06-14T13:49:32;27.70;99.90
56542;DHT22;42438;53.174;6.730;2023-06-14T13:52:05;27.50;99.90
56542;DHT22;42438;53.174;6.730;2023-06-14T13:54:36;27.30;99.90
56542;DHT22;42438;53.174;6.730;2023-06-14T13:57:06;27.20;99.90
56542;DHT22;42438;53.174;6.730;2023-06-14T13:59:38;27.00;99.90
56542;DHT22;42438;53.174;6.730;2023-06-14T14:02:08;27.10;99.90
56542;DHT22;42438;53.174;6.730;2023-06-14T14:04:40;27.30;99.90
56542;DHT22;42438;53.174;6.730;2023-06-14T14:07:10;27.40;99.90
56542;DHT22;42438;53.174;6.730;2023-06-14T14:09:41;27.40;99.90
56542;DHT22;42438;53.174;6.730;2023-06-14T14:12:13;27.60;99.90
56542;DHT22;42438;53.174;6.730;2023-06-14T14:14:45;27.70;99.90
56542;DHT22;42438;53.174;6.730;2023-06-14T14:17:16;27.90;99.90
56542;DHT22;42438;53.174;6.730;2023-06-14T14:19:48;28.00;99.90
56542;DHT22;42438;53.174;6.730;2023-06-14T14:22:18;28.20;99.90
56542;DHT22;42438;53.174;6.730;2023-06-14T14:24:49;28.20;99.90
56542;DHT22;42438;53.174;6.730;2023-06-14T14:27:19;27.80;99.90
56542;DHT22;42438;53.174;6.730;2023-06-14T14:29:50;27.30;99.90
56542;DHT22;42438;53.174;6.730;2023-06-14T14:32:21;26.90;99.90
56542;DHT22;42438;53.174;6.730;2023-06-14T14:34:51;26.60;99.90
56542;DHT22;42438;53.174;6.730;2023-06-14T14:37:22;26.40;99.90
56542;DHT22;42438;53.174;6.730;2023-06-14T14:39:53;26.40;99.90
56542;DHT22;42438;53.174;6.730;2023-06-14T14:42:23;26.50;99.90
56542;DHT22;42438;53.174;6.730;2023-06-14T14:44:54;26.50;99.90
56542;DHT22;42438;53.174;6.730;2023-06-14T14:47:24;26.70;99.90
56542;DHT22;42438;53.174;6.730;2023-06-14T14:49:55;27.00;99.90
56542;DHT22;42438;53.174;6.730;2023-06-14T14:52:26;27.30;99.90
56542;DHT22;42438;53.174;6.730;2023-06-14T14:54:57;27.70;99.90
56542;DHT22;42438;53.174;6.730;2023-06-14T14:57:27;28.00;99.90
56542;DHT22;42438;53.174;6.730;2023-06-14T14:59:58;28.20;99.90
56542;DHT22;42438;53.174;6.730;2023-06-14T15:02:29;28.50;99.90
56542;DHT22;42438;53.174;6.730;2023-06-14T15:04:59;28.50;99.90
56542;DHT22;42438;53.174;6.730;2023-06-14T15:07:31;28.30;99.90
56542;DHT22;42438;53.174;6.730;2023-06-14T15:10:02;27.90;99.90
56542;DHT22;42438;53.174;6.730;2023-06-14T15:12:33;27.60;99.90
56542;DHT22;42438;53.174;6.730;2023-06-14T15:15:04;27.30;99.90
56542;DHT22;42438;53.174;6.730;2023-06-14T15:17:35;26.90;99.90
56542;DHT22;42438;53.174;6.730;2023-06-14T15:20:06;26.60;99.90
56542;DHT22;42438;53.174;6.730;2023-06-14T15:22:37;26.50;99.90
56542;DHT22;42438;53.174;6.730;2023-06-14T15:25:08;26.60;99.90
56542;DHT22;42438;53.174;6.730;2023-06-14T15:27:38;26.70;99.90
56542;DHT22;42438;53.174;6.730;2023-06-14T15:30:09;26.90;99.90
56542;DHT22;42438;53.174;6.730;2023-06-14T15:32:40;27.20;99.90
56542;DHT22;42438;53.174;6.730;2023-06-14T15:35:10;27.50;99.90
56542;DHT22;42438;53.174;6.730;2023-06-14T15:37:42;27.80;99.90
56542;DHT22;42438;53.174;6.730;2023-06-14T15:40:13;28.00;99.90
56542;DHT22;42438;53.174;6.730;2023-06-14T15:42:43;28.30;99.90
56542;DHT22;42438;53.174;6.730;2023-06-14T15:45:14;28.60;1.00
56542;DHT22;42438;53.174;6.730;2023-06-14T15:47:46;28.50;99.90
56542;DHT22;42438;53.174;6.730;2023-06-14T15:50:16;28.20;99.90
56542;DHT22;42438;53.174;6.730;2023-06-14T15:52:47;28.00;99.90
56542;DHT22;42438;53.174;6.730;2023-06-14T15:55:18;27.90;99.90
56542;DHT22;42438;53.174;6.730;2023-06-14T15:57:49;27.90;99.90
56542;DHT22;42438;53.174;6.730;2023-06-14T16:00:20;27.80;99.90
56542;DHT22;42438;53.174;6.730;2023-06-14T16:02:51;27.60;99.90
56542;DHT22;42438;53.174;6.730;2023-06-14T16:05:22;27.50;99.90
56542;DHT22;42438;53.174;6.730;2023-06-14T16:07:52;27.50;99.90
56542;DHT22;42438;53.174;6.730;2023-06-14T16:10:23;27.70;99.90
56542;DHT22;42438;53.174;6.730;2023-06-14T16:12:54;27.80;99.90